createdAt,value
2019-03-31T00:00:00.491Z,149.67
2019-03-31T00:02:30.450Z,163.17
2019-03-31T00:05:00.564Z,161.17
2019-03-31T00:07:30.587Z,145.53
2019-03-31T00:10:00.526Z,155.07
2019-03-31T00:12:30.454Z,165.97
2019-03-31T00:15:00.433Z,166.17
2019-03-31T00:17:30.370Z,178.33
2019-03-31T00:20:00.398Z,172.53
2019-03-31T00:22:30.381Z,166.20
2019-03-31T00:25:00.383Z,167.13
2019-03-31T00:27:30.301Z,156.53
2019-03-31T00:30:00.484Z,172.80
2019-03-31T00:32:30.438Z,162.53
2019-03-31T00:35:00.425Z,159.93
2019-03-31T00:37:30.361Z,165.10
2019-03-31T00:40:00.362Z,166.87
2019-03-31T00:42:30.338Z,169.83
2019-03-31T00:45:00.360Z,169.53
2019-03-31T00:47:30.483Z,164.70
2019-03-31T00:50:00.588Z,161.17
2019-03-31T00:52:30.810Z,150.33
2019-03-31T00:55:00.683Z,167.77
2019-03-31T00:57:30.699Z,166.30
2019-03-31T01:00:00.640Z,165.00
2019-03-31T01:02:32.947Z,156.43
2019-03-31T01:05:03.894Z,165.00
2019-03-31T01:07:34.001Z,164.53
2019-03-31T01:10:05.003Z,159.20
2019-03-31T01:12:35.105Z,176.00
2019-03-31T01:15:09.987Z,165.80
2019-03-31T01:17:40.110Z,161.17
2019-03-31T01:20:10.390Z,161.80
2019-03-31T01:22:40.282Z,155.50
2019-03-31T01:25:10.948Z,151.53
2019-03-31T01:27:41.231Z,168.23
2019-03-31T01:30:12.747Z,157.47
2019-03-31T01:32:42.894Z,157.47
2019-03-31T01:35:13.270Z,153.17
2019-03-31T01:37:43.312Z,175.17
2019-03-31T01:40:13.670Z,160.13
2019-03-31T01:42:43.630Z,162.33
2019-03-31T01:45:13.910Z,165.67
2019-03-31T01:47:43.787Z,163.37
2019-03-31T01:50:16.114Z,158.80
2019-03-31T01:52:45.920Z,153.20
2019-03-31T01:55:15.947Z,152.37
2019-03-31T01:57:46.157Z,168.27
2019-03-31T02:00:33.357Z,165.50
2019-03-31T02:03:03.691Z,162.03
2019-03-31T02:05:33.696Z,161.03
2019-03-31T02:08:03.786Z,164.93
2019-03-31T02:10:33.834Z,168.70
2019-03-31T02:13:03.797Z,157.37
2019-03-31T02:15:33.819Z,143.77
2019-03-31T02:18:03.792Z,152.57
2019-03-31T02:20:33.953Z,151.13
2019-03-31T02:23:03.913Z,137.93
2019-03-31T02:25:34.089Z,159.27
2019-03-31T02:28:04.111Z,138.63
2019-03-31T02:30:34.071Z,134.47
2019-03-31T02:33:04.087Z,157.40
2019-03-31T02:35:34.057Z,138.60
2019-03-31T02:38:04.016Z,166.40
2019-03-31T02:40:34.118Z,172.13
2019-03-31T02:43:04.030Z,161.27
2019-03-31T02:45:34.111Z,164.33
2019-03-31T02:48:04.130Z,147.23
2019-03-31T02:50:50.212Z,174.77
2019-03-31T02:53:20.948Z,153.50
2019-03-31T02:55:52.794Z,171.20
2019-03-31T02:58:23.170Z,161.23
2019-03-31T03:00:54.109Z,168.93
2019-03-31T03:03:23.973Z,153.07
2019-03-31T03:05:56.583Z,165.67
2019-03-31T03:08:28.660Z,159.13
2019-03-31T03:11:01.597Z,148.43
2019-03-31T03:13:33.145Z,167.00
2019-03-31T03:16:28.299Z,157.40
2019-03-31T03:18:58.339Z,169.20
2019-03-31T03:21:28.432Z,167.80
2019-03-31T03:23:58.913Z,165.33
2019-03-31T03:26:28.985Z,158.33
2019-03-31T03:28:58.834Z,156.77
2019-03-31T03:31:28.804Z,137.60
2019-03-31T03:33:58.745Z,151.03
2019-03-31T03:36:28.704Z,162.37
2019-03-31T03:38:58.678Z,150.00
2019-03-31T03:41:28.666Z,137.23
2019-03-31T03:44:02.303Z,146.43
2019-03-31T03:46:30.322Z,150.43
2019-03-31T03:49:00.451Z,149.30
2019-03-31T03:51:30.607Z,149.70
2019-03-31T03:54:00.559Z,141.47
2019-03-31T03:56:30.605Z,146.00
2019-03-31T03:59:00.797Z,147.97
2019-03-31T04:01:32.666Z,154.37
2019-03-31T04:04:02.715Z,149.03
2019-03-31T04:06:32.777Z,149.37
2019-03-31T04:09:04.538Z,143.10
2019-03-31T04:11:34.461Z,143.07
2019-03-31T04:14:04.636Z,145.57
2019-03-31T04:16:34.682Z,143.87
2019-03-31T04:19:04.691Z,124.93
2019-03-31T04:21:34.671Z,124.77
2019-03-31T04:24:04.697Z,117.03
2019-03-31T04:26:34.724Z,118.47
2019-03-31T04:29:04.827Z,91.83
2019-03-31T04:31:34.975Z,99.33
2019-03-31T04:34:04.894Z,104.23
2019-03-31T04:36:34.864Z,137.50
2019-03-31T04:39:06.656Z,107.10
2019-03-31T04:41:36.675Z,124.43
2019-03-31T04:44:06.579Z,131.47
2019-03-31T04:46:36.587Z,137.80
2019-03-31T04:49:06.586Z,143.00
2019-03-31T04:51:36.619Z,130.77
2019-03-31T04:54:06.616Z,148.70
2019-03-31T04:56:36.602Z,153.03
2019-03-31T04:59:06.635Z,138.27
2019-03-31T05:01:36.600Z,145.20
2019-03-31T05:04:06.550Z,147.33
2019-03-31T05:06:36.522Z,147.53
2019-03-31T05:09:07.314Z,158.33
2019-03-31T05:11:37.399Z,140.27
2019-03-31T05:14:07.513Z,143.07
2019-03-31T05:16:37.400Z,146.13
2019-03-31T05:19:07.321Z,149.40
2019-03-31T05:21:37.391Z,132.47
2019-03-31T05:24:07.346Z,141.57
2019-03-31T05:26:37.299Z,138.07
2019-03-31T05:29:07.272Z,143.17
2019-03-31T05:31:37.274Z,142.87
2019-03-31T05:34:18.523Z,141.03
2019-03-31T05:36:38.885Z,141.63
2019-03-31T05:39:08.943Z,126.50
2019-03-31T05:41:38.896Z,136.43
2019-03-31T05:44:09.110Z,131.17
2019-03-31T05:46:39.178Z,124.87
2019-03-31T05:49:09.192Z,102.70
2019-03-31T05:51:39.159Z,132.60
2019-03-31T05:54:09.135Z,138.60
2019-03-31T05:56:39.139Z,130.43
2019-03-31T05:59:09.213Z,132.57
2019-03-31T06:01:39.194Z,128.67
2019-03-31T06:04:09.286Z,135.57
2019-03-31T06:06:39.294Z,128.73
2019-03-31T06:09:09.174Z,100.10
2019-03-31T06:11:39.835Z,136.10
2019-03-31T06:14:09.922Z,125.83
2019-03-31T06:16:39.922Z,119.50
2019-03-31T06:19:09.919Z,127.87
2019-03-31T06:21:39.862Z,130.80
2019-03-31T06:24:09.813Z,106.97
2019-03-31T06:26:39.778Z,109.70
2019-03-31T06:29:09.712Z,114.67
2019-03-31T06:31:39.608Z,114.57
2019-03-31T06:34:09.612Z,118.33
2019-03-31T06:36:39.563Z,104.60
2019-03-31T06:39:09.622Z,106.40
2019-03-31T06:41:39.610Z,110.27
2019-03-31T06:44:09.599Z,112.13
2019-03-31T06:46:39.567Z,119.50
2019-03-31T06:49:09.692Z,113.80
2019-03-31T06:51:39.651Z,105.53
2019-03-31T06:54:09.573Z,106.37
2019-03-31T06:56:39.577Z,102.90
2019-03-31T06:59:09.538Z,99.47
2019-03-31T07:01:39.550Z,104.97
2019-03-31T07:04:09.545Z,89.53
2019-03-31T07:06:39.447Z,90.53
2019-03-31T07:09:09.507Z,104.23
2019-03-31T07:11:39.525Z,93.50
2019-03-31T07:14:09.490Z,88.80
2019-03-31T07:16:39.454Z,92.67
2019-03-31T07:19:09.405Z,80.00
2019-03-31T07:21:39.382Z,84.23
2019-03-31T07:24:09.348Z,87.27
2019-03-31T07:26:39.418Z,88.00
2019-03-31T07:29:09.264Z,75.67
2019-03-31T07:31:39.349Z,84.50
2019-03-31T07:34:09.359Z,81.93
2019-03-31T07:36:39.349Z,85.13
2019-03-31T07:39:09.402Z,86.77
2019-03-31T07:41:39.561Z,84.03
2019-03-31T07:44:09.473Z,80.53
2019-03-31T07:46:39.473Z,81.90
2019-03-31T07:49:09.449Z,83.77
2019-03-31T07:51:39.470Z,73.63
2019-03-31T07:54:09.494Z,71.63
2019-03-31T07:56:40.080Z,70.23
2019-03-31T07:59:10.435Z,68.90
2019-03-31T08:01:40.450Z,69.60
2019-03-31T08:04:10.426Z,70.57
2019-03-31T08:06:40.426Z,67.67
2019-03-31T08:09:10.710Z,59.00
2019-03-31T08:11:40.706Z,70.67
2019-03-31T08:14:10.652Z,73.33
2019-03-31T08:16:40.675Z,65.73
2019-03-31T08:19:10.721Z,39.97
2019-03-31T08:21:40.700Z,62.07
2019-03-31T08:24:10.727Z,65.20
2019-03-31T08:26:40.674Z,71.13
2019-03-31T08:29:10.627Z,45.60
2019-03-31T08:31:40.514Z,75.87
2019-03-31T08:34:10.546Z,71.93
2019-03-31T08:36:40.477Z,73.87
2019-03-31T08:39:10.522Z,65.27
2019-03-31T08:41:40.640Z,74.40
2019-03-31T08:44:10.595Z,67.80
2019-03-31T08:46:40.582Z,78.37
2019-03-31T08:49:10.526Z,76.67
2019-03-31T08:51:40.526Z,70.27
2019-03-31T08:54:10.494Z,74.57
2019-03-31T08:56:40.486Z,64.00
2019-03-31T08:59:10.425Z,72.57
2019-03-31T09:01:40.395Z,64.93
2019-03-31T09:04:10.451Z,70.23
2019-03-31T09:06:40.478Z,64.07
2019-03-31T09:09:10.586Z,66.43
2019-03-31T09:11:40.611Z,67.87
2019-03-31T09:14:10.750Z,64.93
2019-03-31T09:16:40.814Z,65.10
2019-03-31T09:19:10.855Z,60.17
2019-03-31T09:21:40.942Z,61.70
2019-03-31T09:24:10.978Z,66.20
2019-03-31T09:26:40.887Z,58.93
2019-03-31T09:29:10.961Z,63.10
2019-03-31T09:31:41.022Z,67.83
2019-03-31T09:34:11.063Z,68.13
2019-03-31T09:36:41.058Z,57.27
2019-03-31T09:39:10.985Z,52.53
2019-03-31T09:41:41.089Z,63.50
2019-03-31T09:44:11.169Z,70.50
2019-03-31T09:46:41.353Z,63.73
2019-03-31T09:49:11.453Z,65.60
2019-03-31T09:51:41.697Z,70.63
2019-03-31T09:54:12.639Z,66.23
2019-03-31T09:56:42.702Z,63.10
2019-03-31T09:59:12.786Z,55.80
2019-03-31T10:01:42.826Z,68.97
2019-03-31T10:04:12.897Z,64.83
2019-03-31T10:06:43.358Z,65.80
2019-03-31T10:09:13.171Z,67.80
2019-03-31T10:11:43.364Z,61.53
2019-03-31T10:14:13.407Z,66.33
2019-03-31T10:16:43.378Z,59.97
2019-03-31T10:19:13.611Z,60.07
2019-03-31T10:21:43.654Z,66.53
2019-03-31T10:24:13.752Z,65.90
2019-03-31T10:26:43.882Z,60.83
2019-03-31T10:29:13.926Z,57.47
2019-03-31T10:31:43.882Z,64.73
2019-03-31T10:34:14.089Z,69.50
2019-03-31T10:36:45.085Z,74.50
2019-03-31T10:39:15.303Z,66.43
2019-03-31T10:41:45.430Z,71.43
2019-03-31T10:44:15.544Z,66.43
2019-03-31T10:46:45.735Z,68.67
2019-03-31T10:49:15.829Z,69.83
2019-03-31T10:51:45.897Z,68.23
2019-03-31T10:54:16.005Z,68.30
2019-03-31T10:56:46.028Z,68.13
2019-03-31T10:59:16.071Z,67.57
2019-03-31T11:01:46.263Z,55.00
2019-03-31T11:04:16.493Z,62.37
2019-03-31T11:06:58.426Z,47.87
2019-03-31T11:09:18.219Z,56.60
2019-03-31T11:11:48.155Z,38.77
2019-03-31T11:14:18.158Z,61.53
2019-03-31T11:16:48.487Z,57.73
2019-03-31T11:19:18.453Z,43.97
2019-03-31T11:22:13.514Z,32.27
2019-03-31T11:24:43.515Z,60.73
2019-03-31T11:27:13.614Z,36.17
2019-03-31T11:29:43.632Z,48.60
2019-03-31T11:32:13.690Z,61.40
2019-03-31T11:34:43.807Z,62.63
2019-03-31T11:37:14.187Z,57.63
2019-03-31T11:39:44.331Z,49.77
2019-03-31T11:42:14.338Z,62.43
2019-03-31T11:44:44.438Z,62.07
2019-03-31T11:47:14.396Z,45.20
2019-03-31T11:49:44.394Z,59.47
2019-03-31T11:52:14.550Z,57.93
2019-03-31T11:54:46.020Z,51.47
2019-03-31T11:57:17.718Z,49.10
2019-03-31T11:59:49.684Z,53.90
2019-03-31T12:02:27.098Z,51.50
2019-03-31T12:04:51.488Z,56.33
2019-03-31T12:07:27.827Z,60.83
2019-03-31T12:09:53.295Z,44.07
2019-03-31T12:12:23.280Z,44.20
2019-03-31T12:15:00.248Z,54.77
2019-03-31T12:17:25.531Z,57.47
2019-03-31T12:19:55.618Z,31.27
2019-03-31T12:22:25.602Z,54.67
2019-03-31T12:24:55.537Z,53.70
2019-03-31T12:27:25.666Z,50.00
2019-03-31T12:29:55.566Z,55.23
2019-03-31T12:32:25.538Z,43.93
2019-03-31T12:34:55.787Z,39.83
2019-03-31T12:37:25.965Z,38.10
2019-03-31T12:39:56.054Z,32.37
2019-03-31T12:42:26.002Z,39.70
2019-03-31T12:44:56.010Z,38.73
2019-03-31T12:47:26.086Z,29.10
2019-03-31T12:49:56.063Z,35.87
2019-03-31T12:52:26.026Z,27.80
2019-03-31T12:54:58.070Z,30.07
2019-03-31T12:57:27.994Z,30.10
2019-03-31T12:59:57.954Z,22.77
2019-03-31T13:02:28.093Z,27.93
2019-03-31T13:04:58.195Z,36.17
2019-03-31T13:07:28.226Z,26.20
2019-03-31T13:09:58.254Z,21.87
2019-03-31T13:12:28.269Z,25.77
2019-03-31T13:14:58.313Z,23.43
2019-03-31T13:17:28.283Z,23.60
2019-03-31T13:19:58.253Z,21.47
2019-03-31T13:22:28.396Z,17.30
2019-03-31T13:25:02.029Z,8.97
2019-03-31T13:27:30.100Z,25.17
2019-03-31T13:30:00.050Z,14.30
2019-03-31T13:32:30.163Z,22.47
2019-03-31T13:35:00.100Z,19.67
2019-03-31T13:37:30.156Z,15.47
2019-03-31T13:40:00.361Z,18.17
2019-03-31T13:42:30.482Z,25.37
2019-03-31T13:45:00.511Z,14.93
2019-03-31T13:47:30.565Z,10.63
2019-03-31T13:50:00.561Z,11.50
2019-03-31T13:52:30.543Z,14.60
2019-03-31T13:55:00.784Z,18.27
2019-03-31T13:57:32.533Z,18.57
2019-03-31T14:00:09.721Z,13.93
2019-03-31T14:02:39.746Z,15.73
2019-03-31T14:05:09.747Z,8.20
2019-03-31T14:07:39.870Z,23.17
2019-03-31T14:10:10.082Z,17.17
2019-03-31T14:12:40.449Z,17.00
2019-03-31T14:15:18.896Z,17.00
2019-03-31T14:17:42.247Z,13.97
2019-03-31T14:20:13.818Z,14.37
2019-03-31T14:22:43.701Z,13.83
2019-03-31T14:25:13.682Z,11.10
2019-03-31T14:27:43.629Z,9.80
2019-03-31T14:30:13.800Z,18.53
2019-03-31T14:32:43.770Z,14.00
2019-03-31T14:35:13.845Z,16.60
2019-03-31T14:37:43.880Z,12.10
2019-03-31T14:40:13.982Z,10.57
2019-03-31T14:42:44.037Z,14.67
2019-03-31T14:45:22.732Z,18.77
2019-03-31T14:47:52.754Z,19.03
2019-03-31T14:50:33.051Z,18.03
2019-03-31T14:53:03.361Z,17.30
2019-03-31T14:55:33.637Z,15.87
2019-03-31T14:58:03.698Z,12.47
2019-03-31T15:00:33.634Z,14.90
2019-03-31T15:03:03.880Z,13.77
2019-03-31T15:05:37.366Z,10.57
2019-03-31T15:08:07.445Z,9.40
2019-03-31T15:10:37.639Z,9.00
2019-03-31T15:13:07.799Z,10.90
2019-03-31T15:15:38.026Z,12.67
2019-03-31T15:18:08.146Z,6.87
2019-03-31T15:20:38.035Z,8.43
2019-03-31T15:23:08.039Z,5.77
2019-03-31T15:25:38.067Z,8.87
2019-03-31T15:28:07.973Z,4.77
2019-03-31T15:30:37.933Z,6.30
2019-03-31T15:33:07.911Z,5.63
2019-03-31T15:35:38.101Z,7.37
2019-03-31T15:38:08.255Z,6.77
2019-03-31T15:40:38.290Z,6.07
2019-03-31T15:43:08.267Z,8.83
2019-03-31T15:45:38.199Z,9.27
2019-03-31T15:48:08.302Z,7.10
2019-03-31T15:50:38.333Z,8.80
2019-03-31T15:53:08.347Z,6.80
2019-03-31T15:55:40.422Z,7.10
2019-03-31T15:58:10.382Z,13.50
2019-03-31T16:00:40.360Z,7.83
2019-03-31T16:03:10.258Z,7.12
2019-03-31T16:05:40.259Z,5.65
2019-03-31T16:08:09.775Z,9.00
2019-03-31T16:10:39.206Z,9.30
2019-03-31T16:13:08.627Z,7.07
2019-03-31T16:15:38.193Z,7.70
2019-03-31T16:18:07.604Z,6.87
2019-03-31T16:20:37.135Z,9.00
2019-03-31T16:23:06.651Z,7.73
2019-03-31T16:25:42.101Z,8.23
2019-03-31T16:28:11.562Z,8.23
2019-03-31T16:30:41.026Z,9.40
2019-03-31T16:33:10.537Z,7.17
2019-03-31T16:35:40.085Z,10.10
2019-03-31T16:38:09.565Z,8.07
2019-03-31T16:40:39.010Z,12.97
2019-03-31T16:43:08.538Z,7.13
2019-03-31T16:45:38.019Z,10.77
2019-03-31T16:48:07.525Z,9.23
2019-03-31T16:50:36.969Z,16.97
2019-03-31T16:53:06.366Z,8.77
2019-03-31T16:55:36.151Z,16.40
2019-03-31T16:58:09.191Z,15.37
2019-03-31T17:00:36.815Z,7.73
2019-03-31T17:03:06.425Z,17.97
2019-03-31T17:05:35.894Z,13.20
2019-03-31T17:08:05.368Z,8.20
2019-03-31T17:10:35.021Z,11.67
2019-03-31T17:13:04.497Z,9.17
2019-03-31T17:15:34.126Z,10.00
2019-03-31T17:18:03.782Z,9.63
2019-03-31T17:20:33.193Z,12.27
2019-03-31T17:23:02.674Z,8.93
2019-03-31T17:25:32.161Z,12.27
2019-03-31T17:28:01.618Z,6.13
2019-03-31T17:30:30.956Z,7.17
2019-03-31T17:33:00.663Z,10.70
2019-03-31T17:35:30.303Z,8.43
2019-03-31T17:37:59.840Z,11.13
2019-03-31T17:40:29.183Z,10.10
2019-03-31T17:42:58.718Z,11.33
2019-03-31T17:45:28.101Z,13.23
2019-03-31T17:47:57.556Z,14.87
2019-03-31T17:50:27.075Z,12.33
2019-03-31T17:52:56.555Z,15.17
2019-03-31T17:55:25.916Z,10.83
2019-03-31T17:57:55.475Z,11.17
2019-03-31T18:00:27.768Z,19.60
2019-03-31T18:02:57.196Z,14.27
2019-03-31T18:05:26.635Z,16.50
2019-03-31T18:07:56.097Z,17.57
2019-03-31T18:10:25.582Z,24.07
2019-03-31T18:12:55.078Z,25.30
2019-03-31T18:15:24.542Z,26.40
2019-03-31T18:17:53.966Z,26.23
2019-03-31T18:20:23.417Z,18.87
2019-03-31T18:22:52.839Z,23.73
2019-03-31T18:25:22.271Z,16.70
2019-03-31T18:27:51.670Z,14.70
2019-03-31T18:30:21.287Z,15.70
2019-03-31T18:32:50.738Z,13.53
2019-03-31T18:35:20.268Z,14.93
2019-03-31T18:37:49.691Z,14.83
2019-03-31T18:40:19.055Z,17.17
2019-03-31T18:42:48.567Z,17.67
2019-03-31T18:45:17.934Z,16.87
2019-03-31T18:47:47.452Z,25.67
2019-03-31T18:50:17.103Z,25.03
2019-03-31T18:52:46.474Z,27.87
2019-03-31T18:55:43.809Z,34.97
2019-03-31T18:58:22.475Z,50.80
2019-03-31T19:01:14.362Z,50.83
2019-03-31T19:04:11.758Z,46.73
2019-03-31T19:07:06.314Z,40.93
2019-03-31T19:09:57.538Z,38.83
2019-03-31T19:12:48.927Z,42.17
2019-03-31T19:15:36.138Z,42.90
2019-03-31T19:18:36.755Z,38.57
2019-03-31T19:21:15.206Z,36.47
2019-03-31T19:23:52.970Z,19.23
2019-03-31T19:26:48.085Z,13.37
2019-03-31T19:29:25.815Z,11.87
2019-03-31T19:32:05.538Z,11.73
2019-03-31T19:34:57.056Z,11.77
2019-03-31T19:37:39.889Z,14.23
2019-03-31T19:40:27.299Z,11.00
2019-03-31T19:43:16.271Z,15.60
2019-03-31T19:46:05.783Z,11.53
2019-03-31T19:48:52.455Z,14.93
2019-03-31T19:51:39.696Z,11.10
2019-03-31T19:54:26.718Z,13.60
2019-03-31T19:57:23.949Z,12.83
2019-03-31T20:00:06.978Z,11.80
2019-03-31T20:03:04.478Z,13.23
2019-03-31T20:05:56.356Z,18.73
2019-03-31T20:08:37.418Z,17.63
2019-03-31T20:11:17.380Z,14.50
2019-03-31T20:13:56.742Z,12.93
2019-03-31T20:16:43.406Z,10.10
2019-03-31T20:19:34.574Z,13.47
2019-03-31T20:22:21.768Z,9.30
2019-03-31T20:25:22.416Z,13.33
2019-03-31T20:28:15.232Z,13.57
2019-03-31T20:31:02.604Z,16.60
2019-03-31T20:33:54.269Z,10.60
2019-03-31T20:36:39.583Z,9.90
2019-03-31T20:39:34.566Z,10.90
2019-03-31T20:42:21.791Z,8.67
2019-03-31T20:44:51.324Z,12.27
2019-03-31T20:47:20.704Z,14.90
2019-03-31T20:49:50.208Z,9.87
2019-03-31T20:52:19.599Z,12.93
2019-03-31T20:54:48.986Z,14.47
2019-03-31T20:57:18.433Z,9.43
2019-03-31T20:59:47.884Z,10.83
2019-03-31T21:02:17.554Z,9.93
2019-03-31T21:04:46.990Z,11.27
2019-03-31T21:07:16.457Z,10.50
2019-03-31T21:09:45.890Z,9.03
2019-03-31T21:12:15.298Z,11.07
2019-03-31T21:14:44.730Z,7.60
2019-03-31T21:17:14.094Z,12.37
2019-03-31T21:19:43.543Z,12.10
2019-03-31T21:22:12.990Z,15.40
2019-03-31T21:24:42.418Z,10.30
2019-03-31T21:27:11.856Z,15.57
2019-03-31T21:29:41.271Z,15.77
2019-03-31T21:32:10.655Z,8.43
2019-03-31T21:34:40.216Z,17.27
2019-03-31T21:37:09.534Z,14.30
2019-03-31T21:39:39.262Z,12.67
2019-03-31T21:42:08.730Z,14.00
2019-03-31T21:44:38.245Z,13.83
2019-03-31T21:47:07.715Z,15.23
2019-03-31T21:49:37.034Z,20.60
2019-03-31T21:52:06.474Z,16.00
2019-03-31T21:54:35.856Z,14.60
2019-03-31T21:57:05.285Z,16.53
2019-03-31T21:59:34.653Z,21.70
2019-03-31T22:02:04.506Z,22.77
2019-03-31T22:04:33.946Z,20.93
2019-03-31T22:07:03.567Z,19.37
2019-03-31T22:09:32.982Z,21.37
2019-03-31T22:12:02.668Z,22.03
2019-03-31T22:14:32.202Z,16.10
2019-03-31T22:17:01.746Z,20.93
2019-03-31T22:19:31.121Z,17.93
2019-03-31T22:22:00.515Z,21.53
2019-03-31T22:24:29.995Z,19.10
2019-03-31T22:26:59.456Z,15.10
2019-03-31T22:29:28.815Z,18.17
2019-03-31T22:31:58.249Z,17.37
2019-03-31T22:34:27.637Z,18.93
2019-03-31T22:36:57.014Z,19.03
2019-03-31T22:39:26.442Z,22.07
2019-03-31T22:41:55.824Z,38.43
2019-03-31T22:44:25.275Z,26.53
2019-03-31T22:46:54.804Z,22.07
2019-03-31T22:49:24.378Z,17.97
2019-03-31T22:51:56.417Z,19.37
2019-03-31T22:54:24.982Z,16.47
2019-03-31T22:56:54.486Z,14.50
2019-03-31T22:59:24.038Z,12.33
2019-03-31T23:01:53.487Z,16.87
2019-03-31T23:04:23.063Z,14.03
2019-03-31T23:06:52.435Z,14.27
2019-03-31T23:09:21.878Z,12.07
2019-03-31T23:11:51.479Z,16.73
2019-03-31T23:14:20.904Z,12.70
2019-03-31T23:16:50.339Z,12.37
2019-03-31T23:19:19.729Z,11.97
2019-03-31T23:21:49.154Z,15.17
2019-03-31T23:24:18.578Z,10.87
2019-03-31T23:26:47.979Z,16.53
2019-03-31T23:29:17.354Z,15.27
2019-03-31T23:31:46.735Z,12.67
2019-03-31T23:34:16.121Z,14.33
2019-03-31T23:36:45.571Z,19.27
2019-03-31T23:39:14.928Z,19.07
2019-03-31T23:41:44.403Z,15.40
2019-03-31T23:44:13.822Z,13.07
2019-03-31T23:46:43.290Z,13.10
2019-03-31T23:49:12.642Z,15.13
2019-03-31T23:51:42.062Z,17.73
2019-03-31T23:54:11.494Z,13.27
2019-03-31T23:56:40.971Z,16.40
2019-03-31T23:59:10.342Z,18.60
